Bolen Town, South Carolina
Current Conditions -  °F | °C
As of 5:53 PM on Saturday 25 Oct 2014 (Local Time) from KOGB Reporting Station
Clear Clear  
Wind Chill: 74°   Ceiling: Unl
Heat Index: 74°   Visibility: 10mi
Dew Point: 41°   Wind: 3mph
Humidity: 30%   Direction: 330°NNW
Pressure: 29.96"   Gusts: NA
Location:  33.4964°N, 80.8317°W
Report Text: KOGB 252153Z AUTO 33003KT 10SM CLR 23/05 A2996 RMK AO2 SLP143 T02330050
Loading
Personal Weather Stations






























Interactive Weather Map
Tropical Storm Tracking
New forecast layout! Learn more

10-Day Weather Forecast

Advertisements
Track Severe Weather on mobile